Millvale, Pennsylvania
Current Conditions -  °F | °C
As of 1:26 AM on Saturday 01 Nov 2014 (Local Time) from KAGC Reporting Station
Light Rain Light Rain  
Wind Chill:   Ceiling: 600
Heat Index:   Visibility: 2.5mi
Dew Point:   Wind: 6mph
Humidity: 89%   Direction: 10°N
Pressure: 29.86"   Gusts: NA
Location:  40.5015°N, 79.9773°W
Report Text: KAGC 010526Z 01005KT 2 1/2SM -RA BR OVC006 05/03 A2986 RMK AO2 CIG 006V010 P0001 T00500033
Loading
Personal Weather Stations






























Interactive Weather Map
Tropical Storm Tracking
New forecast layout! Learn more

10-Day Weather Forecast

Advertisements
Track Severe Weather on mobile